sensor_id;sensor_type;location;lat;lon;timestamp;P1;durP1;ratioP1;P2;durP2;ratioP2
75718;SDS011;64340;48.534;-3.036;2023-06-24T00:01:23;3.72;;;2.78;;
75718;SDS011;64340;48.534;-3.036;2023-06-24T00:03:50;5.40;;;3.30;;
75718;SDS011;64340;48.534;-3.036;2023-06-24T00:06:18;4.60;;;2.70;;
75718;SDS011;64340;48.534;-3.036;2023-06-24T00:08:45;5.15;;;3.03;;
75718;SDS011;64340;48.534;-3.036;2023-06-24T00:11:11;5.78;;;3.13;;
75718;SDS011;64340;48.534;-3.036;2023-06-24T00:13:38;4.80;;;3.10;;
75718;SDS011;64340;48.534;-3.036;2023-06-24T00:16:05;4.22;;;3.20;;
75718;SDS011;64340;48.534;-3.036;2023-06-24T00:18:33;5.63;;;3.33;;
75718;SDS011;64340;48.534;-3.036;2023-06-24T00:21:00;4.03;;;2.85;;
75718;SDS011;64340;48.534;-3.036;2023-06-24T00:23:27;5.00;;;3.00;;
75718;SDS011;64340;48.534;-3.036;2023-06-24T00:25:54;4.20;;;2.72;;
75718;SDS011;64340;48.534;-3.036;2023-06-24T00:28:20;4.57;;;2.75;;
75718;SDS011;64340;48.534;-3.036;2023-06-24T00:30:47;4.10;;;2.65;;
75718;SDS011;64340;48.534;-3.036;2023-06-24T00:33:13;5.97;;;2.95;;
75718;SDS011;64340;48.534;-3.036;2023-06-24T00:35:39;4.82;;;2.38;;
75718;SDS011;64340;48.534;-3.036;2023-06-24T00:38:05;4.72;;;2.70;;
75718;SDS011;64340;48.534;-3.036;2023-06-24T00:40:31;4.60;;;2.80;;
75718;SDS011;64340;48.534;-3.036;2023-06-24T00:42:58;5.28;;;2.63;;
75718;SDS011;64340;48.534;-3.036;2023-06-24T00:45:23;4.65;;;2.60;;
75718;SDS011;64340;48.534;-3.036;2023-06-24T00:47:49;3.63;;;2.53;;
75718;SDS011;64340;48.534;-3.036;2023-06-24T00:50:16;3.53;;;2.58;;
75718;SDS011;64340;48.534;-3.036;2023-06-24T00:52:42;4.30;;;2.70;;
75718;SDS011;64340;48.534;-3.036;2023-06-24T00:55:12;4.15;;;2.92;;
75718;SDS011;64340;48.534;-3.036;2023-06-24T00:57:40;4.03;;;2.47;;
75718;SDS011;64340;48.534;-3.036;2023-06-24T01:00:08;3.88;;;2.47;;
75718;SDS011;64340;48.534;-3.036;2023-06-24T01:02:42;4.00;;;2.70;;
75718;SDS011;64340;48.534;-3.036;2023-06-24T01:05:11;6.32;;;2.95;;
75718;SDS011;64340;48.534;-3.036;2023-06-24T01:10:04;5.07;;;2.67;;
75718;SDS011;64340;48.534;-3.036;2023-06-24T01:12:30;4.90;;;2.97;;
75718;SDS011;64340;48.534;-3.036;2023-06-24T01:15:00;4.35;;;2.85;;
75718;SDS011;64340;48.534;-3.036;2023-06-24T01:17:31;4.53;;;2.95;;
75718;SDS011;64340;48.534;-3.036;2023-06-24T01:33:09;6.35;;;2.88;;
75718;SDS011;64340;48.534;-3.036;2023-06-24T01:35:39;4.60;;;2.60;;
75718;SDS011;64340;48.534;-3.036;2023-06-24T01:38:08;5.50;;;3.10;;
75718;SDS011;64340;48.534;-3.036;2023-06-24T01:40:41;4.90;;;3.20;;
75718;SDS011;64340;48.534;-3.036;2023-06-24T01:43:10;4.13;;;2.78;;
75718;SDS011;64340;48.534;-3.036;2023-06-24T01:45:51;4.78;;;2.97;;
75718;SDS011;64340;48.534;-3.036;2023-06-24T01:51:00;6.35;;;3.42;;
75718;SDS011;64340;48.534;-3.036;2023-06-24T01:53:32;4.95;;;3.03;;
75718;SDS011;64340;48.534;-3.036;2023-06-24T01:56:01;4.63;;;2.95;;
75718;SDS011;64340;48.534;-3.036;2023-06-24T01:58:30;4.25;;;3.22;;
75718;SDS011;64340;48.534;-3.036;2023-06-24T02:00:59;4.78;;;3.28;;
75718;SDS011;64340;48.534;-3.036;2023-06-24T02:03:26;5.20;;;2.83;;
75718;SDS011;64340;48.534;-3.036;2023-06-24T02:05:53;6.68;;;2.97;;
75718;SDS011;64340;48.534;-3.036;2023-06-24T02:08:21;4.88;;;2.95;;
75718;SDS011;64340;48.534;-3.036;2023-06-24T02:10:48;4.93;;;3.28;;
75718;SDS011;64340;48.534;-3.036;2023-06-24T02:13:16;4.22;;;2.70;;
75718;SDS011;64340;48.534;-3.036;2023-06-24T02:15:43;3.72;;;2.70;;
75718;SDS011;64340;48.534;-3.036;2023-06-24T02:18:10;4.85;;;2.95;;
75718;SDS011;64340;48.534;-3.036;2023-06-24T02:20:38;5.28;;;3.30;;
75718;SDS011;64340;48.534;-3.036;2023-06-24T02:23:06;4.13;;;2.83;;
75718;SDS011;64340;48.534;-3.036;2023-06-24T02:25:33;3.97;;;2.70;;
75718;SDS011;64340;48.534;-3.036;2023-06-24T02:27:59;5.28;;;2.75;;
75718;SDS011;64340;48.534;-3.036;2023-06-24T02:30:26;4.45;;;2.60;;
75718;SDS011;64340;48.534;-3.036;2023-06-24T02:32:53;4.07;;;3.05;;
75718;SDS011;64340;48.534;-3.036;2023-06-24T02:35:19;3.92;;;2.63;;
75718;SDS011;64340;48.534;-3.036;2023-06-24T02:37:45;5.85;;;2.85;;
75718;SDS011;64340;48.534;-3.036;2023-06-24T02:40:11;5.20;;;3.17;;
75718;SDS011;64340;48.534;-3.036;2023-06-24T02:42:37;5.53;;;2.70;;
75718;SDS011;64340;48.534;-3.036;2023-06-24T02:45:03;6.20;;;3.05;;
75718;SDS011;64340;48.534;-3.036;2023-06-24T02:47:30;5.05;;;2.80;;
75718;SDS011;64340;48.534;-3.036;2023-06-24T02:49:58;5.43;;;3.00;;
75718;SDS011;64340;48.534;-3.036;2023-06-24T02:52:24;4.97;;;2.75;;
75718;SDS011;64340;48.534;-3.036;2023-06-24T02:54:54;4.13;;;2.67;;
75718;SDS011;64340;48.534;-3.036;2023-06-24T02:57:24;4.88;;;2.80;;
75718;SDS011;64340;48.534;-3.036;2023-06-24T02:59:51;5.25;;;3.00;;
75718;SDS011;64340;48.534;-3.036;2023-06-24T03:02:17;4.13;;;2.85;;
75718;SDS011;64340;48.534;-3.036;2023-06-24T03:04:43;5.38;;;2.67;;
75718;SDS011;64340;48.534;-3.036;2023-06-24T03:07:10;4.15;;;2.47;;
75718;SDS011;64340;48.534;-3.036;2023-06-24T03:09:36;4.88;;;2.80;;
75718;SDS011;64340;48.534;-3.036;2023-06-24T03:12:02;3.33;;;2.40;;
75718;SDS011;64340;48.534;-3.036;2023-06-24T03:14:30;5.13;;;2.67;;
75718;SDS011;64340;48.534;-3.036;2023-06-24T03:16:56;4.65;;;3.10;;
75718;SDS011;64340;48.534;-3.036;2023-06-24T03:19:22;4.95;;;3.13;;
75718;SDS011;64340;48.534;-3.036;2023-06-24T03:21:48;5.07;;;2.72;;
75718;SDS011;64340;48.534;-3.036;2023-06-24T03:24:13;4.78;;;2.60;;
75718;SDS011;64340;48.534;-3.036;2023-06-24T03:26:39;4.30;;;2.70;;
75718;SDS011;64340;48.534;-3.036;2023-06-24T03:29:06;4.45;;;2.67;;
75718;SDS011;64340;48.534;-3.036;2023-06-24T03:31:35;4.40;;;2.78;;
75718;SDS011;64340;48.534;-3.036;2023-06-24T03:34:02;4.25;;;2.90;;
75718;SDS011;64340;48.534;-3.036;2023-06-24T03:36:28;4.32;;;2.65;;
75718;SDS011;64340;48.534;-3.036;2023-06-24T03:38:54;5.28;;;2.78;;
75718;SDS011;64340;48.534;-3.036;2023-06-24T03:41:19;4.80;;;2.40;;
75718;SDS011;64340;48.534;-3.036;2023-06-24T03:43:46;7.03;;;2.58;;
75718;SDS011;64340;48.534;-3.036;2023-06-24T03:46:12;8.30;;;2.97;;
75718;SDS011;64340;48.534;-3.036;2023-06-24T03:48:37;6.03;;;2.60;;
75718;SDS011;64340;48.534;-3.036;2023-06-24T03:51:03;3.72;;;2.60;;
75718;SDS011;64340;48.534;-3.036;2023-06-24T03:53:29;4.88;;;2.60;;
75718;SDS011;64340;48.534;-3.036;2023-06-24T03:55:55;4.05;;;2.47;;
75718;SDS011;64340;48.534;-3.036;2023-06-24T03:58:21;5.10;;;2.75;;
75718;SDS011;64340;48.534;-3.036;2023-06-24T04:00:47;5.35;;;2.65;;
75718;SDS011;64340;48.534;-3.036;2023-06-24T04:03:14;3.97;;;2.35;;
75718;SDS011;64340;48.534;-3.036;2023-06-24T04:05:43;5.22;;;2.80;;
75718;SDS011;64340;48.534;-3.036;2023-06-24T04:08:09;5.40;;;2.85;;
75718;SDS011;64340;48.534;-3.036;2023-06-24T04:10:35;5.07;;;3.30;;
75718;SDS011;64340;48.534;-3.036;2023-06-24T04:13:01;5.53;;;2.83;;
75718;SDS011;64340;48.534;-3.036;2023-06-24T04:15:26;4.57;;;3.08;;
75718;SDS011;64340;48.534;-3.036;2023-06-24T04:17:52;4.90;;;2.80;;
75718;SDS011;64340;48.534;-3.036;2023-06-24T04:20:18;5.28;;;2.70;;
75718;SDS011;64340;48.534;-3.036;2023-06-24T04:22:44;5.43;;;2.67;;
75718;SDS011;64340;48.534;-3.036;2023-06-24T04:25:09;6.63;;;2.65;;
75718;SDS011;64340;48.534;-3.036;2023-06-24T04:27:36;5.57;;;2.70;;
75718;SDS011;64340;48.534;-3.036;2023-06-24T04:30:02;4.40;;;2.40;;
75718;SDS011;64340;48.534;-3.036;2023-06-24T04:32:29;4.15;;;2.80;;
75718;SDS011;64340;48.534;-3.036;2023-06-24T04:34:54;4.82;;;2.53;;
75718;SDS011;64340;48.534;-3.036;2023-06-24T04:37:20;4.68;;;2.40;;
75718;SDS011;64340;48.534;-3.036;2023-06-24T04:39:46;4.63;;;2.90;;
75718;SDS011;64340;48.534;-3.036;2023-06-24T04:42:12;5.97;;;3.10;;
75718;SDS011;64340;48.534;-3.036;2023-06-24T04:44:39;5.28;;;2.92;;
75718;SDS011;64340;48.534;-3.036;2023-06-24T04:47:05;5.07;;;2.95;;
75718;SDS011;64340;48.534;-3.036;2023-06-24T04:49:31;5.80;;;2.83;;
75718;SDS011;64340;48.534;-3.036;2023-06-24T04:51:59;6.85;;;3.42;;
75718;SDS011;64340;48.534;-3.036;2023-06-24T04:54:26;5.55;;;2.85;;
75718;SDS011;64340;48.534;-3.036;2023-06-24T04:56:52;5.95;;;2.70;;
75718;SDS011;64340;48.534;-3.036;2023-06-24T04:59:20;4.07;;;2.63;;
75718;SDS011;64340;48.534;-3.036;2023-06-24T05:01:49;5.63;;;2.92;;
75718;SDS011;64340;48.534;-3.036;2023-06-24T05:04:15;6.47;;;3.40;;
75718;SDS011;64340;48.534;-3.036;2023-06-24T05:06:40;4.90;;;2.78;;
75718;SDS011;64340;48.534;-3.036;2023-06-24T05:09:06;4.63;;;2.50;;
75718;SDS011;64340;48.534;-3.036;2023-06-24T05:11:32;4.13;;;2.95;;
75718;SDS011;64340;48.534;-3.036;2023-06-24T05:13:58;5.60;;;3.08;;
75718;SDS011;64340;48.534;-3.036;2023-06-24T05:16:23;5.60;;;3.38;;
75718;SDS011;64340;48.534;-3.036;2023-06-24T05:18:49;5.53;;;3.13;;
75718;SDS011;64340;48.534;-3.036;2023-06-24T05:21:15;5.40;;;3.00;;
75718;SDS011;64340;48.534;-3.036;2023-06-24T05:23:41;5.57;;;3.13;;
75718;SDS011;64340;48.534;-3.036;2023-06-24T05:26:07;5.78;;;3.47;;
75718;SDS011;64340;48.534;-3.036;2023-06-24T05:28:32;4.43;;;3.15;;
75718;SDS011;64340;48.534;-3.036;2023-06-24T05:30:58;7.30;;;3.47;;
75718;SDS011;64340;48.534;-3.036;2023-06-24T05:33:24;6.72;;;3.60;;
75718;SDS011;64340;48.534;-3.036;2023-06-24T05:35:50;6.03;;;3.63;;
75718;SDS011;64340;48.534;-3.036;2023-06-24T05:38:16;6.25;;;3.42;;
75718;SDS011;64340;48.534;-3.036;2023-06-24T05:40:42;5.68;;;3.65;;
75718;SDS011;64340;48.534;-3.036;2023-06-24T05:43:08;6.38;;;3.60;;
75718;SDS011;64340;48.534;-3.036;2023-06-24T05:45:33;8.27;;;3.97;;
75718;SDS011;64340;48.534;-3.036;2023-06-24T05:47:59;9.70;;;4.18;;
75718;SDS011;64340;48.534;-3.036;2023-06-24T05:50:25;5.30;;;3.60;;
75718;SDS011;64340;48.534;-3.036;2023-06-24T05:52:51;8.95;;;3.50;;
75718;SDS011;64340;48.534;-3.036;2023-06-24T05:55:16;6.53;;;3.92;;
75718;SDS011;64340;48.534;-3.036;2023-06-24T05:57:42;6.07;;;4.00;;
75718;SDS011;64340;48.534;-3.036;2023-06-24T06:00:08;7.80;;;4.50;;
75718;SDS011;64340;48.534;-3.036;2023-06-24T06:02:34;8.45;;;3.72;;
75718;SDS011;64340;48.534;-3.036;2023-06-24T06:05:00;9.80;;;4.10;;
75718;SDS011;64340;48.534;-3.036;2023-06-24T06:07:26;7.45;;;4.38;;
75718;SDS011;64340;48.534;-3.036;2023-06-24T06:09:52;6.50;;;4.05;;
75718;SDS011;64340;48.534;-3.036;2023-06-24T06:12:18;7.07;;;4.05;;
75718;SDS011;64340;48.534;-3.036;2023-06-24T06:14:43;8.70;;;4.22;;
75718;SDS011;64340;48.534;-3.036;2023-06-24T06:17:09;7.90;;;4.10;;
75718;SDS011;64340;48.534;-3.036;2023-06-24T06:19:35;7.30;;;4.22;;
75718;SDS011;64340;48.534;-3.036;2023-06-24T06:22:01;6.50;;;4.32;;
75718;SDS011;64340;48.534;-3.036;2023-06-24T06:24:26;8.98;;;5.05;;
75718;SDS011;64340;48.534;-3.036;2023-06-24T06:26:52;7.80;;;4.80;;
75718;SDS011;64340;48.534;-3.036;2023-06-24T06:29:18;9.80;;;5.82;;
75718;SDS011;64340;48.534;-3.036;2023-06-24T06:31:44;8.80;;;5.75;;
75718;SDS011;64340;48.534;-3.036;2023-06-24T06:34:09;8.77;;;5.47;;
75718;SDS011;64340;48.534;-3.036;2023-06-24T06:36:35;11.63;;;6.25;;
75718;SDS011;64340;48.534;-3.036;2023-06-24T06:39:01;8.57;;;5.40;;
75718;SDS011;64340;48.534;-3.036;2023-06-24T06:41:27;7.97;;;5.43;;
75718;SDS011;64340;48.534;-3.036;2023-06-24T06:43:53;9.05;;;5.07;;
75718;SDS011;64340;48.534;-3.036;2023-06-24T06:46:19;9.23;;;5.70;;
75718;SDS011;64340;48.534;-3.036;2023-06-24T06:48:45;8.05;;;4.95;;
75718;SDS011;64340;48.534;-3.036;2023-06-24T06:51:11;8.52;;;4.70;;
75718;SDS011;64340;48.534;-3.036;2023-06-24T06:53:37;10.13;;;5.22;;
75718;SDS011;64340;48.534;-3.036;2023-06-24T06:56:04;9.65;;;4.82;;
75718;SDS011;64340;48.534;-3.036;2023-06-24T06:58:29;9.30;;;4.57;;
75718;SDS011;64340;48.534;-3.036;2023-06-24T07:00:55;8.32;;;5.25;;
75718;SDS011;64340;48.534;-3.036;2023-06-24T07:03:26;9.05;;;6.28;;
75718;SDS011;64340;48.534;-3.036;2023-06-24T07:05:54;7.97;;;5.63;;
75718;SDS011;64340;48.534;-3.036;2023-06-24T07:08:19;10.38;;;6.18;;
75718;SDS011;64340;48.534;-3.036;2023-06-24T07:10:45;11.63;;;6.07;;
75718;SDS011;64340;48.534;-3.036;2023-06-24T07:13:11;10.18;;;6.60;;
75718;SDS011;64340;48.534;-3.036;2023-06-24T07:15:37;10.85;;;6.05;;
75718;SDS011;64340;48.534;-3.036;2023-06-24T07:18:02;9.70;;;6.30;;
75718;SDS011;64340;48.534;-3.036;2023-06-24T07:20:28;10.07;;;5.70;;
75718;SDS011;64340;48.534;-3.036;2023-06-24T07:22:54;10.50;;;5.90;;
75718;SDS011;64340;48.534;-3.036;2023-06-24T07:25:20;8.70;;;4.93;;
75718;SDS011;64340;48.534;-3.036;2023-06-24T07:27:45;9.57;;;5.13;;
75718;SDS011;64340;48.534;-3.036;2023-06-24T07:30:11;11.02;;;5.28;;
75718;SDS011;64340;48.534;-3.036;2023-06-24T07:32:37;8.02;;;4.85;;
75718;SDS011;64340;48.534;-3.036;2023-06-24T07:35:03;7.00;;;4.32;;
75718;SDS011;64340;48.534;-3.036;2023-06-24T07:37:29;9.55;;;4.60;;
75718;SDS011;64340;48.534;-3.036;2023-06-24T07:39:55;7.65;;;4.00;;
75718;SDS011;64340;48.534;-3.036;2023-06-24T07:42:20;6.93;;;4.20;;
75718;SDS011;64340;48.534;-3.036;2023-06-24T07:44:46;7.90;;;4.20;;
75718;SDS011;64340;48.534;-3.036;2023-06-24T07:47:13;8.20;;;4.60;;
75718;SDS011;64340;48.534;-3.036;2023-06-24T07:49:39;6.20;;;4.30;;
75718;SDS011;64340;48.534;-3.036;2023-06-24T07:52:05;7.63;;;4.22;;
75718;SDS011;64340;48.534;-3.036;2023-06-24T07:54:31;7.70;;;3.92;;
75718;SDS011;64340;48.534;-3.036;2023-06-24T07:56:57;5.90;;;4.18;;
75718;SDS011;64340;48.534;-3.036;2023-06-24T07:59:23;6.93;;;3.42;;
75718;SDS011;64340;48.534;-3.036;2023-06-24T08:01:49;6.20;;;3.97;;
75718;SDS011;64340;48.534;-3.036;2023-06-24T08:04:15;6.85;;;4.03;;
75718;SDS011;64340;48.534;-3.036;2023-06-24T08:06:41;7.90;;;4.03;;
75718;SDS011;64340;48.534;-3.036;2023-06-24T08:09:07;7.05;;;3.60;;
75718;SDS011;64340;48.534;-3.036;2023-06-24T08:11:32;8.52;;;5.20;;
75718;SDS011;64340;48.534;-3.036;2023-06-24T08:13:58;6.20;;;3.95;;
75718;SDS011;64340;48.534;-3.036;2023-06-24T08:16:24;6.72;;;4.00;;
75718;SDS011;64340;48.534;-3.036;2023-06-24T08:18:50;7.40;;;4.20;;
75718;SDS011;64340;48.534;-3.036;2023-06-24T08:21:16;5.82;;;3.90;;
75718;SDS011;64340;48.534;-3.036;2023-06-24T08:23:42;6.68;;;4.18;;
75718;SDS011;64340;48.534;-3.036;2023-06-24T08:26:08;5.35;;;3.40;;
75718;SDS011;64340;48.534;-3.036;2023-06-24T08:28:34;6.70;;;3.63;;
75718;SDS011;64340;48.534;-3.036;2023-06-24T08:31:00;6.75;;;4.15;;
75718;SDS011;64340;48.534;-3.036;2023-06-24T08:33:26;5.90;;;3.97;;
75718;SDS011;64340;48.534;-3.036;2023-06-24T08:35:51;8.15;;;4.05;;
75718;SDS011;64340;48.534;-3.036;2023-06-24T08:38:17;5.70;;;3.90;;
75718;SDS011;64340;48.534;-3.036;2023-06-24T08:40:43;7.10;;;4.15;;
75718;SDS011;64340;48.534;-3.036;2023-06-24T08:43:10;5.80;;;3.78;;
75718;SDS011;64340;48.534;-3.036;2023-06-24T08:45:39;6.28;;;3.88;;
75718;SDS011;64340;48.534;-3.036;2023-06-24T08:48:05;6.25;;;4.03;;
75718;SDS011;64340;48.534;-3.036;2023-06-24T08:50:33;6.10;;;4.30;;
75718;SDS011;64340;48.534;-3.036;2023-06-24T08:53:03;7.28;;;3.90;;
75718;SDS011;64340;48.534;-3.036;2023-06-24T08:55:35;6.95;;;3.90;;
75718;SDS011;64340;48.534;-3.036;2023-06-24T08:58:07;7.95;;;4.03;;
75718;SDS011;64340;48.534;-3.036;2023-06-24T09:00:33;6.78;;;4.18;;
75718;SDS011;64340;48.534;-3.036;2023-06-24T09:03:00;8.57;;;4.60;;
75718;SDS011;64340;48.534;-3.036;2023-06-24T09:05:26;5.85;;;3.83;;
75718;SDS011;64340;48.534;-3.036;2023-06-24T09:07:52;8.60;;;4.10;;
75718;SDS011;64340;48.534;-3.036;2023-06-24T09:10:33;5.90;;;3.70;;
75718;SDS011;64340;48.534;-3.036;2023-06-24T09:13:01;8.93;;;3.85;;
75718;SDS011;64340;48.534;-3.036;2023-06-24T09:15:31;6.63;;;3.45;;
75718;SDS011;64340;48.534;-3.036;2023-06-24T09:17:57;6.22;;;3.63;;
75718;SDS011;64340;48.534;-3.036;2023-06-24T09:20:25;5.43;;;3.53;;
75718;SDS011;64340;48.534;-3.036;2023-06-24T09:22:57;5.80;;;3.80;;
75718;SDS011;64340;48.534;-3.036;2023-06-24T09:25:23;6.57;;;3.70;;
75718;SDS011;64340;48.534;-3.036;2023-06-24T09:27:49;6.45;;;3.88;;
75718;SDS011;64340;48.534;-3.036;2023-06-24T09:32:47;6.38;;;3.97;;
75718;SDS011;64340;48.534;-3.036;2023-06-24T09:35:19;6.32;;;3.35;;
75718;SDS011;64340;48.534;-3.036;2023-06-24T09:37:50;6.38;;;3.50;;
75718;SDS011;64340;48.534;-3.036;2023-06-24T09:40:20;29.65;;;18.02;;
75718;SDS011;64340;48.534;-3.036;2023-06-24T09:42:54;17.60;;;12.15;;
75718;SDS011;64340;48.534;-3.036;2023-06-24T09:45:22;11.32;;;7.18;;
75718;SDS011;64340;48.534;-3.036;2023-06-24T09:47:55;6.85;;;4.15;;
75718;SDS011;64340;48.534;-3.036;2023-06-24T09:50:21;5.72;;;4.10;;
75718;SDS011;64340;48.534;-3.036;2023-06-24T09:52:50;6.30;;;3.60;;
75718;SDS011;64340;48.534;-3.036;2023-06-24T09:55:18;6.25;;;3.90;;
75718;SDS011;64340;48.534;-3.036;2023-06-24T09:57:45;5.90;;;3.88;;
75718;SDS011;64340;48.534;-3.036;2023-06-24T10:00:13;5.40;;;3.65;;
75718;SDS011;64340;48.534;-3.036;2023-06-24T10:02:42;6.90;;;3.72;;
75718;SDS011;64340;48.534;-3.036;2023-06-24T10:05:09;5.95;;;3.42;;
75718;SDS011;64340;48.534;-3.036;2023-06-24T10:07:36;5.07;;;3.58;;
75718;SDS011;64340;48.534;-3.036;2023-06-24T10:10:04;6.57;;;4.10;;
75718;SDS011;64340;48.534;-3.036;2023-06-24T10:12:30;5.18;;;3.20;;
75718;SDS011;64340;48.534;-3.036;2023-06-24T10:14:57;7.97;;;3.97;;
75718;SDS011;64340;48.534;-3.036;2023-06-24T10:17:24;6.85;;;3.65;;
75718;SDS011;64340;48.534;-3.036;2023-06-24T10:19:51;6.78;;;3.78;;
75718;SDS011;64340;48.534;-3.036;2023-06-24T10:22:23;6.55;;;3.65;;
75718;SDS011;64340;48.534;-3.036;2023-06-24T10:24:51;6.28;;;3.97;;
75718;SDS011;64340;48.534;-3.036;2023-06-24T10:29:47;7.30;;;3.58;;
75718;SDS011;64340;48.534;-3.036;2023-06-24T10:32:14;5.25;;;3.60;;
75718;SDS011;64340;48.534;-3.036;2023-06-24T10:34:42;5.82;;;3.88;;
75718;SDS011;64340;48.534;-3.036;2023-06-24T10:37:13;6.85;;;4.05;;
75718;SDS011;64340;48.534;-3.036;2023-06-24T10:40:00;6.90;;;3.70;;
75718;SDS011;64340;48.534;-3.036;2023-06-24T10:42:37;6.65;;;3.30;;
75718;SDS011;64340;48.534;-3.036;2023-06-24T10:47:38;4.90;;;3.22;;
75718;SDS011;64340;48.534;-3.036;2023-06-24T10:50:16;4.97;;;2.90;;
75718;SDS011;64340;48.534;-3.036;2023-06-24T10:52:44;5.00;;;3.03;;
75718;SDS011;64340;48.534;-3.036;2023-06-24T10:55:14;8.25;;;3.28;;
75718;SDS011;64340;48.534;-3.036;2023-06-24T10:57:44;5.20;;;2.90;;
75718;SDS011;64340;48.534;-3.036;2023-06-24T11:00:11;5.72;;;2.85;;
75718;SDS011;64340;48.534;-3.036;2023-06-24T11:02:37;5.43;;;2.85;;
75718;SDS011;64340;48.534;-3.036;2023-06-24T11:05:03;4.78;;;2.80;;
75718;SDS011;64340;48.534;-3.036;2023-06-24T11:07:31;4.25;;;2.72;;
75718;SDS011;64340;48.534;-3.036;2023-06-24T11:10:20;6.18;;;3.17;;
75718;SDS011;64340;48.534;-3.036;2023-06-24T11:12:45;5.18;;;3.35;;
75718;SDS011;64340;48.534;-3.036;2023-06-24T11:15:12;4.30;;;2.60;;
75718;SDS011;64340;48.534;-3.036;2023-06-24T11:17:39;4.47;;;2.95;;
75718;SDS011;64340;48.534;-3.036;2023-06-24T11:20:09;4.20;;;2.88;;
75718;SDS011;64340;48.534;-3.036;2023-06-24T11:22:36;5.57;;;2.72;;
75718;SDS011;64340;48.534;-3.036;2023-06-24T11:25:02;6.15;;;2.70;;
75718;SDS011;64340;48.534;-3.036;2023-06-24T11:27:29;5.60;;;3.13;;
75718;SDS011;64340;48.534;-3.036;2023-06-24T11:29:56;4.47;;;2.85;;
75718;SDS011;64340;48.534;-3.036;2023-06-24T11:32:25;4.85;;;3.00;;
75718;SDS011;64340;48.534;-3.036;2023-06-24T11:34:59;4.25;;;2.47;;
75718;SDS011;64340;48.534;-3.036;2023-06-24T11:37:30;7.78;;;3.50;;
75718;SDS011;64340;48.534;-3.036;2023-06-24T11:40:02;5.10;;;2.95;;
75718;SDS011;64340;48.534;-3.036;2023-06-24T11:42:29;4.97;;;2.92;;
75718;SDS011;64340;48.534;-3.036;2023-06-24T11:45:14;4.80;;;2.78;;
75718;SDS011;64340;48.534;-3.036;2023-06-24T11:47:44;6.55;;;3.08;;
75718;SDS011;64340;48.534;-3.036;2023-06-24T11:50:10;4.40;;;2.72;;
75718;SDS011;64340;48.534;-3.036;2023-06-24T11:52:39;4.68;;;3.00;;
75718;SDS011;64340;48.534;-3.036;2023-06-24T11:58:00;4.82;;;2.63;;
75718;SDS011;64340;48.534;-3.036;2023-06-24T12:03:06;3.85;;;2.47;;
75718;SDS011;64340;48.534;-3.036;2023-06-24T12:05:33;4.93;;;3.17;;
75718;SDS011;64340;48.534;-3.036;2023-06-24T12:08:02;4.70;;;3.00;;
75718;SDS011;64340;48.534;-3.036;2023-06-24T12:10:31;4.72;;;2.72;;
75718;SDS011;64340;48.534;-3.036;2023-06-24T12:12:58;4.30;;;2.67;;
75718;SDS011;64340;48.534;-3.036;2023-06-24T12:15:25;5.30;;;2.95;;
75718;SDS011;64340;48.534;-3.036;2023-06-24T12:17:51;5.55;;;3.25;;
75718;SDS011;64340;48.534;-3.036;2023-06-24T12:20:18;4.53;;;2.90;;
75718;SDS011;64340;48.534;-3.036;2023-06-24T12:22:44;5.63;;;2.80;;
75718;SDS011;64340;48.534;-3.036;2023-06-24T12:25:11;6.07;;;2.80;;
75718;SDS011;64340;48.534;-3.036;2023-06-24T12:27:37;7.80;;;2.75;;
75718;SDS011;64340;48.534;-3.036;2023-06-24T12:30:05;4.72;;;2.55;;
75718;SDS011;64340;48.534;-3.036;2023-06-24T12:32:32;5.90;;;2.80;;
75718;SDS011;64340;48.534;-3.036;2023-06-24T12:34:57;5.28;;;2.83;;
75718;SDS011;64340;48.534;-3.036;2023-06-24T12:37:23;4.10;;;2.80;;
75718;SDS011;64340;48.534;-3.036;2023-06-24T12:39:49;4.45;;;2.90;;
75718;SDS011;64340;48.534;-3.036;2023-06-24T12:42:18;4.45;;;2.95;;
75718;SDS011;64340;48.534;-3.036;2023-06-24T12:44:44;6.22;;;3.33;;
75718;SDS011;64340;48.534;-3.036;2023-06-24T12:47:09;5.22;;;3.03;;
75718;SDS011;64340;48.534;-3.036;2023-06-24T12:49:35;7.07;;;3.40;;
75718;SDS011;64340;48.534;-3.036;2023-06-24T12:52:01;4.63;;;3.08;;
75718;SDS011;64340;48.534;-3.036;2023-06-24T12:54:27;5.22;;;3.20;;
75718;SDS011;64340;48.534;-3.036;2023-06-24T12:56:53;5.28;;;3.33;;
75718;SDS011;64340;48.534;-3.036;2023-06-24T12:59:18;5.22;;;3.17;;
75718;SDS011;64340;48.534;-3.036;2023-06-24T13:01:44;7.55;;;3.67;;
75718;SDS011;64340;48.534;-3.036;2023-06-24T13:04:10;5.07;;;3.17;;
75718;SDS011;64340;48.534;-3.036;2023-06-24T13:06:36;4.72;;;3.30;;
75718;SDS011;64340;48.534;-3.036;2023-06-24T13:09:02;10.43;;;3.40;;
75718;SDS011;64340;48.534;-3.036;2023-06-24T13:11:28;5.70;;;3.10;;
75718;SDS011;64340;48.534;-3.036;2023-06-24T13:13:54;5.10;;;3.58;;
75718;SDS011;64340;48.534;-3.036;2023-06-24T13:16:20;4.80;;;3.20;;
75718;SDS011;64340;48.534;-3.036;2023-06-24T13:18:46;5.45;;;3.30;;
75718;SDS011;64340;48.534;-3.036;2023-06-24T13:21:12;7.70;;;3.50;;
75718;SDS011;64340;48.534;-3.036;2023-06-24T13:23:38;5.68;;;3.65;;
75718;SDS011;64340;48.534;-3.036;2023-06-24T13:26:05;6.57;;;3.63;;
75718;SDS011;64340;48.534;-3.036;2023-06-24T13:28:31;4.93;;;2.97;;
75718;SDS011;64340;48.534;-3.036;2023-06-24T13:30:57;7.05;;;3.20;;
75718;SDS011;64340;48.534;-3.036;2023-06-24T13:33:23;5.65;;;3.80;;
75718;SDS011;64340;48.534;-3.036;2023-06-24T13:35:49;9.38;;;3.58;;
75718;SDS011;64340;48.534;-3.036;2023-06-24T13:38:16;7.05;;;3.50;;
75718;SDS011;64340;48.534;-3.036;2023-06-24T13:40:42;5.05;;;3.20;;
75718;SDS011;64340;48.534;-3.036;2023-06-24T13:43:08;5.05;;;3.15;;
75718;SDS011;64340;48.534;-3.036;2023-06-24T13:45:34;5.05;;;3.30;;
75718;SDS011;64340;48.534;-3.036;2023-06-24T13:47:59;4.88;;;3.38;;
75718;SDS011;64340;48.534;-3.036;2023-06-24T13:50:25;6.63;;;3.92;;
75718;SDS011;64340;48.534;-3.036;2023-06-24T13:52:51;5.22;;;3.40;;
75718;SDS011;64340;48.534;-3.036;2023-06-24T13:55:17;4.43;;;3.20;;
75718;SDS011;64340;48.534;-3.036;2023-06-24T13:57:43;5.63;;;3.42;;
75718;SDS011;64340;48.534;-3.036;2023-06-24T14:00:09;4.85;;;3.10;;
75718;SDS011;64340;48.534;-3.036;2023-06-24T14:02:36;7.85;;;3.42;;
75718;SDS011;64340;48.534;-3.036;2023-06-24T14:05:02;7.10;;;3.72;;
75718;SDS011;64340;48.534;-3.036;2023-06-24T14:07:28;5.28;;;3.40;;
75718;SDS011;64340;48.534;-3.036;2023-06-24T14:09:54;6.18;;;3.42;;
75718;SDS011;64340;48.534;-3.036;2023-06-24T14:12:20;5.57;;;3.05;;
75718;SDS011;64340;48.534;-3.036;2023-06-24T14:14:46;5.03;;;2.88;;
75718;SDS011;64340;48.534;-3.036;2023-06-24T14:17:11;5.05;;;3.63;;
75718;SDS011;64340;48.534;-3.036;2023-06-24T14:19:38;4.75;;;3.47;;
75718;SDS011;64340;48.534;-3.036;2023-06-24T14:22:05;5.80;;;3.65;;
75718;SDS011;64340;48.534;-3.036;2023-06-24T14:24:32;4.57;;;3.13;;
75718;SDS011;64340;48.534;-3.036;2023-06-24T14:26:58;4.78;;;2.85;;
75718;SDS011;64340;48.534;-3.036;2023-06-24T14:29:24;5.65;;;3.45;;
75718;SDS011;64340;48.534;-3.036;2023-06-24T14:31:51;7.43;;;3.53;;
75718;SDS011;64340;48.534;-3.036;2023-06-24T14:34:17;6.53;;;3.80;;
75718;SDS011;64340;48.534;-3.036;2023-06-24T14:36:43;5.00;;;3.40;;
75718;SDS011;64340;48.534;-3.036;2023-06-24T14:39:09;8.05;;;3.50;;
75718;SDS011;64340;48.534;-3.036;2023-06-24T14:41:39;6.45;;;3.25;;
75718;SDS011;64340;48.534;-3.036;2023-06-24T14:44:04;6.63;;;3.55;;
75718;SDS011;64340;48.534;-3.036;2023-06-24T14:46:30;5.75;;;3.30;;
75718;SDS011;64340;48.534;-3.036;2023-06-24T14:48:56;7.38;;;3.58;;
75718;SDS011;64340;48.534;-3.036;2023-06-24T14:51:23;6.05;;;3.20;;
75718;SDS011;64340;48.534;-3.036;2023-06-24T14:53:49;5.20;;;3.33;;
75718;SDS011;64340;48.534;-3.036;2023-06-24T14:56:15;5.88;;;2.95;;
75718;SDS011;64340;48.534;-3.036;2023-06-24T14:58:41;5.20;;;3.50;;
75718;SDS011;64340;48.534;-3.036;2023-06-24T15:01:06;7.80;;;3.35;;
75718;SDS011;64340;48.534;-3.036;2023-06-24T15:03:32;4.72;;;3.30;;